Time;durP1;ratioP1;P1;durP2;ratioP2;P2;SDS_P1;SDS_P2;PMS_P1;PMS_P2;Temp;Humidity;BMP_temperature;BMP_pressure;BME280_temperature;BME280_humidity;BME280_pressure;Samples;Min_cycle;Max_cycle;Signal;HPM_P1;HPM_P2
2023/05/22 00:02:22;;;;;;;0.50;0.50;;;;;;;18.34;100.00;99082.56;5052107;28;20218;-66
2023/05/22 00:04:50;;;;;;;0.77;0.77;;;;;;;18.32;100.00;99079.22;5052321;28;20204;-66
2023/05/22 00:07:17;;;;;;;0.70;0.70;;;;;;;18.31;100.00;99073.22;5053142;28;20228;-66
2023/05/22 00:09:45;;;;;;;0.50;0.50;;;;;;;18.29;100.00;99076.81;5052052;28;20205;-67
2023/05/22 00:12:12;;;;;;;0.50;0.50;;;;;;;18.30;100.00;99074.13;5053115;28;20709;-67
2023/05/22 00:14:38;;;;;;;1.50;1.13;;;;;;;18.21;100.00;99064.38;5053010;28;20783;-66
2023/05/22 00:17:09;;;;;;;0.47;0.47;;;;;;;18.16;100.00;99065.59;5052359;28;20203;-66
2023/05/22 00:19:35;;;;;;;0.50;0.50;;;;;;;18.19;100.00;99075.81;5052123;28;20208;-67
2023/05/22 00:22:02;;;;;;;1.03;1.03;;;;;;;18.14;100.00;99078.69;5052175;28;20221;-67
2023/05/22 00:24:29;;;;;;;0.50;0.50;;;;;;;18.14;100.00;99080.44;5051835;28;20209;-66
2023/05/22 00:26:57;;;;;;;0.50;0.50;;;;;;;18.12;100.00;99079.72;5051824;28;20209;-67
2023/05/22 00:29:24;;;;;;;0.70;0.70;;;;;;;18.09;100.00;99079.94;5052710;28;20208;-67
2023/05/22 00:31:51;;;;;;;0.43;0.43;;;;;;;18.06;100.00;99088.72;5051706;28;20207;-65
2023/05/22 00:34:17;;;;;;;0.50;0.50;;;;;;;18.09;100.00;99077.34;5052222;28;20211;-67
2023/05/22 00:36:44;;;;;;;0.60;0.60;;;;;;;18.08;100.00;99080.84;5052233;28;20204;-67
2023/05/22 00:39:11;;;;;;;0.60;0.60;;;;;;;18.07;100.00;99090.41;5051798;28;20259;-66
2023/05/22 00:41:38;;;;;;;0.40;0.40;;;;;;;18.07;100.00;99089.56;5051369;28;20228;-67
2023/05/22 00:44:06;;;;;;;0.90;0.90;;;;;;;18.04;100.00;99090.59;5050959;28;20709;-66
2023/05/22 00:46:33;;;;;;;0.40;0.40;;;;;;;18.06;100.00;99088.72;5050899;28;20205;-67
2023/05/22 00:49:00;;;;;;;0.40;0.40;;;;;;;18.05;100.00;99087.06;5051813;28;20205;-65
2023/05/22 00:51:27;;;;;;;0.37;0.37;;;;;;;18.06;100.00;99088.72;5051565;28;20205;-66
2023/05/22 00:53:54;;;;;;;0.60;0.60;;;;;;;18.07;100.00;99085.19;5051284;28;20198;-67
2023/05/22 00:56:21;;;;;;;0.60;0.60;;;;;;;18.07;100.00;99092.16;5051595;28;20221;-66
2023/05/22 00:58:48;;;;;;;0.90;0.70;;;;;;;18.06;100.00;99085.31;5051627;28;20653;-66
2023/05/22 01:01:17;;;;;;;0.50;0.50;;;;;;;18.06;100.00;99082.72;5050591;28;20847;-66
2023/05/22 01:03:45;;;;;;;0.40;0.40;;;;;;;18.06;100.00;99082.72;5050950;28;20278;-67
2023/05/22 01:06:12;;;;;;;0.50;0.50;;;;;;;18.07;100.00;99086.97;5051329;28;20209;-66
2023/05/22 01:08:40;;;;;;;0.50;0.50;;;;;;;18.07;100.00;99085.19;5051224;28;20212;-66
2023/05/22 01:11:12;;;;;;;0.50;0.50;;;;;;;17.92;100.00;99064.63;5051456;28;20207;-66
2023/05/22 01:13:54;;;;;;;0.50;0.50;;;;;;;18.05;100.00;99081.06;5050643;28;20208;-66
2023/05/22 01:16:29;;;;;;;0.50;0.50;;;;;;;18.04;100.00;99084.56;5051449;28;20588;-66
2023/05/22 01:19:02;;;;;;;0.60;0.60;;;;;;;18.02;100.00;99087.28;5051271;28;20250;-66
2023/05/22 01:21:37;;;;;;;0.50;0.50;;;;;;;17.96;100.00;99081.66;5050547;28;20204;-66
2023/05/22 01:24:43;;;;;;;0.50;0.50;;;;;;;17.92;100.00;99072.41;5051029;28;20204;-66
2023/05/22 01:27:43;;;;;;;0.60;0.60;;;;;;;17.90;100.00;99076.88;5045869;28;20718;-66
2023/05/22 01:30:43;;;;;;;0.53;0.53;;;;;;;17.83;100.00;99074.66;5048393;28;20201;-66
2023/05/22 01:33:14;;;;;;;0.50;0.50;;;;;;;17.73;100.00;99055.47;5045375;28;20250;-66
2023/05/22 01:35:43;;;;;;;0.50;0.50;;;;;;;17.69;100.00;99047.97;5050639;28;20213;-67
2023/05/22 01:38:11;;;;;;;0.77;0.77;;;;;;;17.82;100.00;99070.44;5050813;28;20274;-66
2023/05/22 01:40:38;;;;;;;0.43;0.43;;;;;;;17.79;100.00;99068.03;5050028;28;20205;-66
2023/05/22 01:43:05;;;;;;;0.60;0.60;;;;;;;17.71;100.00;99057.31;5050860;28;20216;-66
2023/05/22 01:45:32;;;;;;;0.70;0.70;;;;;;;17.77;100.00;99062.09;5050937;28;20205;-66
2023/05/22 01:48:00;;;;;;;0.53;0.53;;;;;;;17.77;100.00;99072.47;5051034;28;20212;-66
2023/05/22 01:50:27;;;;;;;0.63;0.63;;;;;;;17.77;100.00;99067.28;5050450;28;20209;-66
2023/05/22 01:53:05;;;;;;;0.57;0.57;;;;;;;17.77;100.00;99071.66;5050058;28;20202;-67
2023/05/22 01:55:39;;;;;;;0.40;0.40;;;;;;;17.76;100.00;99070.81;5050231;28;20205;-67
2023/05/22 01:58:16;;;;;;;0.60;0.60;;;;;;;17.78;100.00;99074.13;5050663;28;20201;-67
2023/05/22 02:00:45;;;;;;;0.70;0.70;;;;;;;17.79;100.00;99070.63;5049172;28;20192;-66
2023/05/22 02:03:19;;;;;;;0.53;0.53;;;;;;;17.76;100.00;99070.00;5050841;28;20212;-66
2023/05/22 02:05:51;;;;;;;0.50;0.50;;;;;;;17.71;100.00;99065.09;5050530;28;20526;-65
2023/05/22 02:08:20;;;;;;;0.40;0.40;;;;;;;17.68;100.00;99073.06;5050821;28;20262;-66
2023/05/22 02:10:50;;;;;;;0.50;0.50;;;;;;;17.66;100.00;99069.75;5050453;28;20299;-66
2023/05/22 02:13:17;;;;;;;0.60;0.60;;;;;;;17.67;100.00;99066.19;5050823;28;20254;-66
2023/05/22 02:15:45;;;;;;;0.60;0.60;;;;;;;17.68;100.00;99080.84;5050482;28;20209;-66
2023/05/22 02:18:14;;;;;;;0.50;0.50;;;;;;;17.70;100.00;99075.56;5050524;28;20202;-66
2023/05/22 02:20:41;;;;;;;0.33;0.33;;;;;;;17.69;100.00;99074.72;5050294;28;20196;-66
2023/05/22 02:23:08;;;;;;;0.40;0.40;;;;;;;17.71;100.00;99075.47;5049706;28;20224;-66
2023/05/22 02:25:35;;;;;;;0.30;0.30;;;;;;;17.74;100.00;99079.59;5050150;28;20213;-66
2023/05/22 02:28:01;;;;;;;0.73;0.73;;;;;;;17.74;100.00;99077.84;5049596;28;20232;-66
2023/05/22 02:30:28;;;;;;;0.40;0.40;;;;;;;17.70;100.00;99076.41;5050189;28;20201;-66
2023/05/22 02:32:56;;;;;;;0.40;0.40;;;;;;;17.69;100.00;99074.72;5049715;28;20193;-66
2023/05/22 02:35:24;;;;;;;0.53;0.53;;;;;;;17.70;100.00;99081.59;5050105;28;20736;-66
2023/05/22 02:37:51;;;;;;;0.40;0.40;;;;;;;17.68;100.00;99074.81;5050121;28;20201;-66
2023/05/22 02:40:18;;;;;;;0.60;0.60;;;;;;;17.67;100.00;99084.34;5050002;28;20688;-66
2023/05/22 02:42:44;;;;;;;0.50;0.50;;;;;;;17.64;100.00;99087.16;5049923;28;20217;-66
2023/05/22 02:45:11;;;;;;;0.57;0.57;;;;;;;17.63;100.00;99082.06;5049627;28;20653;-66
2023/05/22 02:47:38;;;;;;;0.50;0.50;;;;;;;17.63;100.00;99080.31;5049300;28;20204;-66
2023/05/22 02:50:06;;;;;;;0.63;0.60;;;;;;;17.49;100.00;99051.81;5049602;28;20688;-67
2023/05/22 02:52:35;;;;;;;0.60;0.60;;;;;;;17.63;100.00;99075.13;5049416;28;20650;-66
2023/05/22 02:55:03;;;;;;;0.40;0.40;;;;;;;17.57;100.00;99069.50;5049889;28;20638;-66
2023/05/22 02:57:30;;;;;;;0.60;0.60;;;;;;;17.63;100.00;99075.13;5049550;28;20558;-66
2023/05/22 02:59:58;;;;;;;0.40;0.40;;;;;;;17.57;100.00;99075.53;5049591;28;20658;-66
2023/05/22 03:02:27;;;;;;;0.50;0.50;;;;;;;17.59;100.00;99065.88;5048816;28;20228;-66
2023/05/22 03:04:53;;;;;;;0.90;0.90;;;;;;;17.66;100.00;99079.28;5049150;28;20205;-66
2023/05/22 03:07:20;;;;;;;0.57;0.57;;;;;;;17.62;100.00;99073.47;5049694;28;20208;-66
2023/05/22 03:09:49;;;;;;;0.60;0.60;;;;;;;17.63;100.00;99072.53;5050027;28;20228;-66
2023/05/22 03:12:15;;;;;;;0.53;0.53;;;;;;;17.59;100.00;99063.28;5049682;28;20262;-66
2023/05/22 03:14:42;;;;;;;0.40;0.40;;;;;;;17.62;100.00;99078.66;5049341;28;20201;-66
2023/05/22 03:17:09;;;;;;;0.50;0.50;;;;;;;17.61;100.00;99071.78;5049838;28;20258;-66
2023/05/22 03:19:36;;;;;;;0.60;0.60;;;;;;;17.60;100.00;99070.16;5049528;28;21159;-66
2023/05/22 03:22:02;;;;;;;0.50;0.50;;;;;;;17.58;100.00;99071.97;5049514;28;20257;-66
2023/05/22 03:24:30;;;;;;;0.47;0.47;;;;;;;17.51;100.00;99062.91;5048862;28;20201;-66
2023/05/22 03:26:59;;;;;;;0.50;0.50;;;;;;;17.57;100.00;99079.88;5049478;28;20201;-66
2023/05/22 03:29:26;;;;;;;0.30;0.30;;;;;;;17.56;100.00;99078.19;5049554;28;20653;-66
2023/05/22 03:31:56;;;;;;;0.50;0.50;;;;;;;17.49;100.00;99067.38;5049059;28;20213;-66
2023/05/22 03:34:23;;;;;;;0.40;0.40;;;;;;;17.53;100.00;99074.03;5049285;28;20575;-67
2023/05/22 03:36:50;;;;;;;0.60;0.60;;;;;;;17.46;100.00;99061.53;5049116;28;20593;-66
2023/05/22 03:39:17;;;;;;;0.60;0.60;;;;;;;17.50;100.00;99079.41;5049882;28;20201;-66
2023/05/22 03:41:43;;;;;;;0.47;0.47;;;;;;;17.49;100.00;99077.72;5049356;28;20200;-66
2023/05/22 03:44:11;;;;;;;0.83;0.83;;;;;;;17.40;100.00;99073.13;5049567;28;20213;-66
2023/05/22 03:46:38;;;;;;;0.60;0.60;;;;;;;17.33;100.00;99071.84;5049720;28;20200;-66
2023/05/22 03:49:05;;;;;;;1.00;1.00;;;;;;;17.29;100.00;99072.97;5049679;28;20205;-66
2023/05/22 03:51:32;;;;;;;0.43;0.43;;;;;;;17.30;100.00;99074.63;5049169;28;20259;-66
2023/05/22 03:53:58;;;;;;;0.50;0.50;;;;;;;17.33;100.00;99071.84;5048046;28;20197;-66
2023/05/22 03:56:25;;;;;;;0.53;0.53;;;;;;;17.38;100.00;99074.16;5049369;28;20201;-66
2023/05/22 03:58:52;;;;;;;0.90;0.90;;;;;;;17.43;100.00;99082.47;5051507;28;20704;-67
2023/05/22 04:01:20;;;;;;;0.87;0.87;;;;;;;17.48;100.00;99081.25;5052695;28;20255;-66
2023/05/22 04:03:47;;;;;;;0.53;0.53;;;;;;;17.53;100.00;99089.56;5052288;28;20600;-66
2023/05/22 04:06:14;;;;;;;0.70;0.70;;;;;;;17.63;100.00;99090.69;5052793;28;20208;-66
2023/05/22 04:08:41;;;;;;;0.47;0.47;;;;;;;17.68;100.00;99093.81;5052510;28;20646;-66
2023/05/22 04:11:08;;;;;;;0.60;0.60;;;;;;;17.78;100.00;99089.69;5052358;28;20196;-66
2023/05/22 04:13:34;;;;;;;0.40;0.40;;;;;;;17.86;100.00;99089.22;5052643;28;20300;-66
2023/05/22 04:16:03;;;;;;;0.50;0.50;;;;;;;17.93;100.00;99093.06;5045935;28;20201;-66
2023/05/22 04:18:31;;;;;;;0.60;0.60;;;;;;;17.96;100.00;99086.84;5051619;28;20208;-65
2023/05/22 04:20:57;;;;;;;0.70;0.70;;;;;;;18.05;100.00;99083.66;5046039;28;20213;-66
2023/05/22 04:23:24;;;;;;;0.50;0.50;;;;;;;18.06;100.00;99077.53;5048559;28;20220;-66
2023/05/22 04:25:51;;;;;;;0.50;0.50;;;;;;;18.19;100.00;99084.38;5045092;28;20266;-66
2023/05/22 04:28:21;;;;;;;0.50;0.50;;;;;;;18.18;100.00;99072.38;5051132;28;20707;-66
2023/05/22 04:30:48;;;;;;;0.60;0.60;;;;;;;18.30;100.00;99086.28;5050876;28;20201;-67
2023/05/22 04:33:15;;;;;;;0.47;0.47;;;;;;;18.28;100.00;99085.56;5052142;28;20208;-66
2023/05/22 04:35:43;;;;;;;0.60;0.60;;;;;;;18.25;100.00;99081.41;5050745;28;20638;-66
2023/05/22 04:38:10;;;;;;;0.77;0.77;;;;;;;18.27;100.00;99086.50;5051591;28;20206;-66
2023/05/22 04:40:36;;;;;;;0.50;0.50;;;;;;;18.28;100.00;99083.81;5051985;28;20197;-66
2023/05/22 04:43:03;;;;;;;0.50;0.50;;;;;;;18.27;100.00;99091.69;5051699;28;20217;-66
2023/05/22 04:45:31;;;;;;;0.63;0.63;;;;;;;18.29;100.00;99085.44;5049776;28;20651;-67
2023/05/22 04:48:01;;;;;;;0.60;0.60;;;;;;;18.29;100.00;99087.19;5051479;28;20228;-66
2023/05/22 04:50:29;;;;;;;0.50;0.50;;;;;;;18.25;100.00;99093.56;5050017;28;20201;-67
2023/05/22 04:52:58;;;;;;;0.40;0.40;;;;;;;18.26;100.00;99095.19;5052882;28;20229;-66
2023/05/22 04:55:25;;;;;;;0.50;0.50;;;;;;;18.24;100.00;99086.69;5051807;28;20661;-66
2023/05/22 04:57:52;;;;;;;0.50;0.50;;;;;;;18.22;100.00;99091.97;5051992;28;20201;-66
2023/05/22 05:00:25;;;;;;;0.50;0.50;;;;;;;18.20;100.00;99090.41;5051515;28;20197;-66
2023/05/22 05:02:52;;;;;;;0.70;0.70;;;;;;;18.07;100.00;99095.59;5050791;28;20205;-66
2023/05/22 05:05:18;;;;;;;0.70;0.70;;;;;;;17.88;100.00;99081.31;5051379;28;20196;-66
2023/05/22 05:07:46;;;;;;;0.67;0.67;;;;;;;17.95;100.00;99095.56;5051571;28;20209;-66
2023/05/22 05:10:17;;;;;;;0.80;0.80;;;;;;;17.99;100.00;99107.41;5051036;28;20916;-66
2023/05/22 05:12:46;;;;;;;0.50;0.50;;;;;;;18.08;100.00;99101.59;5051462;28;20213;-66
2023/05/22 05:15:13;;;;;;;0.57;0.57;;;;;;;18.14;100.00;99096.00;5051552;28;20215;-66
2023/05/22 05:17:40;;;;;;;0.60;0.60;;;;;;;18.20;100.00;99100.78;5051813;28;20208;-66
2023/05/22 05:20:08;;;;;;;0.50;0.50;;;;;;;18.13;100.00;99095.19;5051455;28;20297;-66
2023/05/22 05:22:36;;;;;;;0.60;0.60;;;;;;;18.23;100.00;99100.59;5052383;28;20205;-66
2023/05/22 05:25:04;;;;;;;0.90;0.90;;;;;;;18.22;100.00;99098.94;5053017;28;20692;-66
2023/05/22 05:27:32;;;;;;;0.60;0.60;;;;;;;18.20;100.00;99112.00;5051261;28;20216;-66
2023/05/22 05:29:59;;;;;;;0.53;0.53;;;;;;;18.22;100.00;99114.53;5047847;28;20220;-67
2023/05/22 05:32:26;;;;;;;0.50;0.50;;;;;;;18.16;100.00;99096.72;5050529;28;20209;-66
2023/05/22 05:34:53;;;;;;;0.43;0.43;;;;;;;18.33;100.00;99112.03;5047829;28;20224;-65
2023/05/22 05:37:20;;;;;;;0.40;0.40;;;;;;;18.45;100.00;99108.59;5048738;28;20204;-66
2023/05/22 05:39:47;;;;;;;0.50;0.50;;;;;;;18.63;100.00;99104.81;5050903;28;20213;-66
2023/05/22 05:42:13;;;;;;;0.50;0.50;;;;;;;18.88;100.00;99106.56;5050668;28;20214;-66
2023/05/22 05:44:42;;;;;;;0.50;0.50;;;;;;;19.09;100.00;99112.06;5050583;28;20220;-67
2023/05/22 05:47:08;;;;;;;0.50;0.50;;;;;;;19.26;100.00;99109.09;5051197;28;20207;-67
2023/05/22 05:49:35;;;;;;;0.40;0.40;;;;;;;19.34;100.00;99123.25;5050397;28;20201;-67
2023/05/22 05:52:03;;;;;;;0.87;0.87;;;;;;;19.50;100.00;99125.63;5050712;28;20197;-67
2023/05/22 05:54:29;;;;;;;0.60;0.60;;;;;;;19.67;100.00;99133.06;5050751;28;20204;-67
2023/05/22 05:56:56;;;;;;;0.83;0.83;;;;;;;19.85;100.00;99134.31;5051651;28;20202;-66
2023/05/22 05:59:23;;;;;;;0.47;0.47;;;;;;;19.84;100.00;99127.44;5051228;28;20212;-66
2023/05/22 06:01:51;;;;;;;0.50;0.50;;;;;;;20.02;100.00;99134.88;5049751;28;20230;-65
2023/05/22 06:04:18;;;;;;;0.63;0.63;;;;;;;20.36;100.00;99136.69;5048911;28;20220;-65
2023/05/22 06:06:46;;;;;;;0.50;0.50;;;;;;;20.69;100.00;99135.94;5049571;28;20200;-68
2023/05/22 06:24:34;;;;;;;0.70;0.70;;;;;;;22.39;92.16;99155.38;4953871;28;20638;-58
2023/05/22 06:27:04;;;;;;;0.40;0.40;;;;;;;22.49;89.77;99160.66;4965216;28;20199;-60
2023/05/22 06:29:31;;;;;;;0.37;0.37;;;;;;;22.48;87.59;99159.03;4956729;28;20216;-60
2023/05/22 06:31:57;;;;;;;0.30;0.30;;;;;;;22.48;88.36;99164.25;4968972;28;20199;-60
2023/05/22 06:34:26;;;;;;;0.40;0.40;;;;;;;22.67;89.72;99164.41;4971158;28;20254;-61
2023/05/22 06:36:53;;;;;;;0.60;0.60;;;;;;;22.89;89.47;99159.03;4965296;28;20204;-60
2023/05/22 06:39:20;;;;;;;0.40;0.40;;;;;;;23.13;88.82;99165.75;4964107;28;20208;-60
2023/05/22 06:41:48;;;;;;;0.30;0.30;;;;;;;23.31;85.15;99169.41;4967173;28;20666;-60
2023/05/22 06:44:15;;;;;;;0.37;0.37;;;;;;;23.31;86.47;99170.25;4972090;28;20743;-60
2023/05/22 06:46:41;;;;;;;0.40;0.40;;;;;;;23.29;86.71;99163.50;4967379;28;20262;-60
2023/05/22 06:49:08;;;;;;;0.70;0.70;;;;;;;23.24;82.98;99163.03;4971762;28;20270;-60
2023/05/22 06:51:35;;;;;;;0.50;0.50;;;;;;;23.53;84.52;99172.69;4971760;28;20208;-60
2023/05/22 06:54:03;;;;;;;0.50;0.50;;;;;;;23.71;83.25;99178.13;4972072;28;20199;-61
2023/05/22 06:56:30;;;;;;;0.30;0.30;;;;;;;23.81;81.13;99178.94;4971384;28;20203;-61
2023/05/22 06:58:58;;;;;;;1.40;0.43;;;;;;;23.82;81.63;99180.59;4971470;28;20203;-61
2023/05/22 07:01:25;;;;;;;0.40;0.40;;;;;;;23.72;80.02;99171.91;4970604;28;20203;-61
2023/05/22 07:03:52;;;;;;;0.20;0.20;;;;;;;23.56;77.71;99184.66;4970579;28;20222;-61
2023/05/22 07:06:19;;;;;;;0.30;0.30;;;;;;;23.56;79.30;99178.59;4970706;28;20222;-61
2023/05/22 07:08:45;;;;;;;0.43;0.43;;;;;;;23.82;78.56;99175.38;4973303;28;20670;-61
2023/05/22 07:11:12;;;;;;;0.30;0.30;;;;;;;23.95;75.34;99180.34;4971124;28;20204;-61
2023/05/22 07:13:39;;;;;;;0.30;0.30;;;;;;;23.96;76.70;99177.59;4970163;28;20212;-59
2023/05/22 07:16:07;;;;;;;0.50;0.50;;;;;;;24.00;73.21;99172.94;4971366;28;20211;-60
2023/05/22 07:18:34;;;;;;;0.30;0.30;;;;;;;24.20;73.71;99179.84;4970481;28;20206;-60
2023/05/22 07:21:01;;;;;;;0.30;0.30;;;;;;;24.37;72.93;99181.78;4970700;28;20693;-61
2023/05/22 07:23:28;;;;;;;0.53;0.53;;;;;;;24.50;72.98;99186.75;4964117;28;20615;-59
2023/05/22 07:25:55;;;;;;;0.27;0.27;;;;;;;24.32;69.93;99183.16;4956738;28;20204;-60
2023/05/22 07:28:22;;;;;;;0.30;0.30;;;;;;;24.14;72.87;99182.19;4964229;28;20200;-59
2023/05/22 07:30:49;;;;;;;0.40;0.40;;;;;;;23.98;70.54;99175.66;4968239;28;20555;-59
2023/05/22 07:33:17;;;;;;;0.50;0.50;;;;;;;23.97;74.24;99174.00;4957319;28;20215;-59
2023/05/22 07:35:44;;;;;;;0.50;0.50;;;;;;;24.20;69.96;99185.09;4965499;28;20200;-60
2023/05/22 07:38:11;;;;;;;0.30;0.30;;;;;;;24.35;71.37;99188.97;4971355;28;20258;-60
2023/05/22 07:40:37;;;;;;;0.30;0.30;;;;;;;24.50;70.96;99186.75;4973370;28;20270;-60
2023/05/22 07:43:04;;;;;;;0.50;0.50;;;;;;;24.42;73.17;99190.06;4971978;28;20210;-60
2023/05/22 07:45:31;;;;;;;0.57;0.57;;;;;;;24.54;74.18;99182.88;4975802;28;20234;-61
2023/05/22 07:47:58;;;;;;;0.37;0.37;;;;;;;24.60;72.73;99182.31;4975459;28;20203;-59
2023/05/22 07:50:26;;;;;;;0.23;0.23;;;;;;;24.34;72.49;99165.50;4972650;28;20210;-60
2023/05/22 07:52:53;;;;;;;0.50;0.50;;;;;;;24.43;72.96;99185.63;4971543;28;20208;-60
2023/05/22 07:55:20;;;;;;;0.40;0.40;;;;;;;24.43;72.60;99188.25;4971719;28;20203;-60
2023/05/22 07:57:46;;;;;;;0.30;0.30;;;;;;;24.48;73.90;99173.78;4973518;28;20200;-60
2023/05/22 08:00:15;;;;;;;0.30;0.30;;;;;;;24.54;75.30;99164.53;4973506;28;20207;-59
2023/05/22 08:02:42;;;;;;;0.50;0.50;;;;;;;24.53;73.24;99181.22;4973653;28;20218;-60
2023/05/22 08:05:09;;;;;;;0.40;0.40;;;;;;;24.68;74.36;99173.75;4973452;28;20227;-60
2023/05/22 08:07:38;;;;;;;0.30;0.30;;;;;;;24.95;71.64;99172.06;4972541;28;20226;-60
2023/05/22 08:10:14;;;;;;;0.40;0.40;;;;;;;24.79;69.06;99169.16;4972904;28;20210;-61
2023/05/22 08:12:41;;;;;;;0.20;0.20;;;;;;;24.78;68.17;99180.63;4972562;28;20278;-60
2023/05/22 08:15:09;;;;;;;0.30;0.30;;;;;;;24.72;67.27;99175.94;4973030;28;20199;-60
2023/05/22 08:17:35;;;;;;;0.40;0.40;;;;;;;24.70;71.81;99172.66;4972637;28;20226;-61
2023/05/22 08:20:04;;;;;;;0.47;0.47;;;;;;;24.59;71.09;99185.09;4960168;28;20207;-60
2023/05/22 08:22:31;;;;;;;0.40;0.40;;;;;;;24.52;72.32;99169.09;4968031;28;20207;-62
2023/05/22 08:24:59;;;;;;;0.40;0.40;;;;;;;24.63;70.38;99176.78;4972456;28;20243;-60
2023/05/22 08:27:25;;;;;;;0.30;0.30;;;;;;;24.80;64.80;99181.31;4972159;28;20199;-60
2023/05/22 08:29:52;;;;;;;0.60;0.60;;;;;;;25.17;64.04;99177.94;4972004;28;20203;-61
2023/05/22 08:32:19;;;;;;;0.27;0.27;;;;;;;25.41;62.05;99180.88;4972347;28;20278;-61
2023/05/22 08:34:46;;;;;;;0.50;0.50;;;;;;;25.61;58.86;99173.75;4972894;28;20659;-61
2023/05/22 08:37:13;;;;;;;0.30;0.30;;;;;;;25.73;58.92;99177.81;4972535;28;20670;-61
2023/05/22 08:39:40;;;;;;;0.30;0.30;;;;;;;25.88;63.51;99179.78;4972914;28;20218;-61
2023/05/22 08:42:08;;;;;;;0.40;0.40;;;;;;;25.91;63.92;99173.44;4972899;28;20208;-62
2023/05/22 08:44:35;;;;;;;0.30;0.30;;;;;;;25.98;59.78;99174.47;4972251;28;20230;-61
2023/05/22 08:47:08;;;;;;;0.30;0.30;;;;;;;26.08;59.17;99173.44;4971750;28;20203;-62
2023/05/22 08:49:35;;;;;;;0.30;0.30;;;;;;;26.05;60.32;99173.75;4972637;28;20305;-62
2023/05/22 08:52:10;;;;;;;0.30;0.30;;;;;;;26.04;60.62;99168.66;4972286;28;20215;-62
2023/05/22 08:54:41;;;;;;;0.37;0.37;;;;;;;26.09;62.89;99169.00;4972343;28;20294;-61
2023/05/22 08:57:10;;;;;;;0.30;0.30;;;;;;;25.91;61.68;99174.25;4971940;28;20230;-61
2023/05/22 08:59:39;;;;;;;0.20;0.20;;;;;;;25.69;59.06;99166.78;4972006;28;20211;-62
2023/05/22 09:02:07;;;;;;;0.40;0.40;;;;;;;25.84;62.45;99159.25;4967213;28;20302;-61
2023/05/22 09:04:33;;;;;;;0.33;0.33;;;;;;;26.14;65.07;99165.94;4972896;28;20769;-62
2023/05/22 09:07:04;;;;;;;0.20;0.20;;;;;;;26.43;61.37;99161.31;4967132;28;20678;-62
2023/05/22 09:09:31;;;;;;;0.30;0.30;;;;;;;26.61;64.25;99152.41;4972444;28;20223;-61
2023/05/22 09:11:58;;;;;;;0.30;0.30;;;;;;;26.61;58.58;99159.47;4973965;28;20215;-61
2023/05/22 09:14:26;;;;;;;0.23;0.23;;;;;;;26.71;61.92;99154.94;4967360;28;20208;-63
2023/05/22 09:16:53;;;;;;;0.60;0.60;;;;;;;26.72;60.26;99156.56;4964986;28;20203;-64
2023/05/22 09:19:20;;;;;;;0.30;0.30;;;;;;;26.40;58.38;99151.06;4961350;28;20654;-64
2023/05/22 09:21:47;;;;;;;0.27;0.27;;;;;;;26.18;58.82;99167.31;4961976;28;20225;-62
2023/05/22 09:24:14;;;;;;;0.50;0.50;;;;;;;26.27;59.98;99158.53;4963023;28;20224;-59
2023/05/22 09:26:41;;;;;;;0.30;0.30;;;;;;;26.24;59.90;99156.19;4961669;28;20623;-59
2023/05/22 09:29:08;;;;;;;0.30;0.30;;;;;;;26.23;59.71;99157.19;4966447;28;20211;-59
2023/05/22 09:31:41;;;;;;;0.40;0.40;;;;;;;26.24;58.95;99164.06;4960447;28;20211;-59
2023/05/22 09:34:09;;;;;;;0.30;0.30;;;;;;;26.24;57.90;99158.81;4965222;28;20239;-58
2023/05/22 09:36:36;;;;;;;0.43;0.43;;;;;;;26.23;58.13;99155.38;4963850;28;20215;-59
2023/05/22 09:39:04;;;;;;;0.50;0.50;;;;;;;26.33;58.92;99156.13;4966683;28;20259;-59
2023/05/22 09:41:35;;;;;;;0.30;0.30;;;;;;;26.37;57.23;99157.47;4957001;28;20679;-59
2023/05/22 09:44:06;;;;;;;0.30;0.30;;;;;;;26.32;55.15;99164.16;4973110;28;20725;-59
2023/05/22 09:46:41;;;;;;;0.40;0.40;;;;;;;26.16;54.21;99166.63;4970024;28;20692;-59
2023/05/22 09:49:07;;;;;;;0.40;0.40;;;;;;;26.11;56.58;99167.03;4971207;28;20198;-60
2023/05/22 09:51:39;;;;;;;0.30;0.30;;;;;;;25.87;56.39;99154.53;4973634;28;20195;-59
2023/05/22 09:54:08;;;;;;;0.20;0.20;;;;;;;26.08;58.42;99157.66;4969344;28;20646;-59
2023/05/22 09:56:37;;;;;;;0.40;0.40;;;;;;;25.86;57.53;99162.53;4968936;28;20623;-59
2023/05/22 09:59:05;;;;;;;0.20;0.20;;;;;;;25.79;55.73;99157.06;4969993;28;20294;-59
2023/05/22 10:01:34;;;;;;;0.20;0.20;;;;;;;25.79;54.99;99151.81;4971999;28;20218;-61
2023/05/22 10:04:04;;;;;;;0.30;0.30;;;;;;;25.72;55.23;99150.72;4968905;28;20199;-59
2023/05/22 10:06:33;;;;;;;0.43;0.43;;;;;;;25.95;57.25;99144.09;4969921;28;20753;-59
2023/05/22 10:09:03;;;;;;;0.30;0.30;;;;;;;26.23;57.71;99144.88;4970549;28;20670;-59
2023/05/22 10:11:32;;;;;;;0.20;0.20;;;;;;;26.36;59.00;99134.81;4959148;28;20259;-58
2023/05/22 10:14:01;;;;;;;0.43;0.43;;;;;;;26.52;55.43;99149.88;4958440;28;20686;-59
2023/05/22 10:16:28;;;;;;;0.20;0.20;;;;;;;26.65;55.53;99144.19;4959102;28;20200;-58
2023/05/22 10:18:56;;;;;;;0.20;0.20;;;;;;;26.61;56.33;99138.44;4959566;28;20209;-59
2023/05/22 10:21:24;;;;;;;0.33;0.33;;;;;;;26.86;60.07;99126.28;4964500;28;20575;-59
2023/05/22 10:23:51;;;;;;;0.37;0.37;;;;;;;27.12;58.65;99133.16;4956029;28;20263;-59
2023/05/22 10:26:20;;;;;;;0.33;0.33;;;;;;;27.38;56.88;99133.09;4953575;28;20232;-59
2023/05/22 10:28:56;;;;;;;0.30;0.30;;;;;;;27.20;50.86;99132.38;4967489;28;20308;-60
2023/05/22 10:31:32;;;;;;;0.30;0.30;;;;;;;27.41;52.84;99139.84;4958744;28;20672;-59
2023/05/22 10:34:01;;;;;;;0.30;0.30;;;;;;;27.32;53.76;99111.84;4959254;28;20621;-60
2023/05/22 10:36:44;;;;;;;0.27;0.27;;;;;;;27.33;52.51;99134.56;4965865;28;20234;-58
2023/05/22 10:39:23;;;;;;;0.30;0.30;;;;;;;27.42;52.13;99133.59;4965764;28;20203;-59
2023/05/22 10:41:52;;;;;;;0.77;0.53;;;;;;;27.45;50.90;99138.59;4955442;28;20207;-58
2023/05/22 10:44:19;;;;;;;0.20;0.20;;;;;;;27.50;52.63;99131.84;4964614;28;20294;-59
2023/05/22 10:46:49;;;;;;;0.30;0.30;;;;;;;27.61;50.41;99134.19;4952931;28;20204;-60
2023/05/22 10:49:21;;;;;;;0.23;0.23;;;;;;;27.73;50.51;99132.06;4959877;28;20261;-60
2023/05/22 10:51:55;;;;;;;0.40;0.40;;;;;;;27.66;52.31;99123.16;4964730;28;20718;-59
2023/05/22 10:54:38;;;;;;;0.23;0.23;;;;;;;27.53;51.90;99117.53;4967041;28;20208;-59
2023/05/22 10:57:14;;;;;;;0.30;0.30;;;;;;;27.66;55.21;99107.34;4970104;28;20227;-59
2023/05/22 10:59:41;;;;;;;0.37;0.37;;;;;;;27.79;54.17;99110.34;4968562;28;20286;-59
2023/05/22 11:02:19;;;;;;;0.27;0.27;;;;;;;27.85;52.74;99109.69;4968827;28;20662;-59
2023/05/22 11:04:46;;;;;;;0.30;0.30;;;;;;;27.93;52.49;99101.00;4966833;28;20227;-59
2023/05/22 11:07:14;;;;;;;0.30;0.30;;;;;;;27.78;52.55;99086.81;4959390;28;20219;-60
2023/05/22 11:09:44;;;;;;;0.23;0.23;;;;;;;27.72;51.27;99098.00;4959550;28;20218;-59
2023/05/22 11:12:19;;;;;;;0.30;0.30;;;;;;;27.66;50.09;99088.91;4972807;28;20210;-59
2023/05/22 11:14:54;;;;;;;0.20;0.20;;;;;;;27.57;49.93;99096.00;4974529;28;20199;-59
2023/05/22 11:17:23;;;;;;;0.20;0.20;;;;;;;27.51;50.29;99096.63;4973776;28;20824;-59
2023/05/22 11:20:00;;;;;;;0.20;0.20;;;;;;;27.26;53.45;99096.69;4973496;28;20686;-59
2023/05/22 11:22:36;;;;;;;0.50;0.50;;;;;;;26.71;56.43;99089.19;4974950;28;20210;-59
2023/05/22 11:25:10;;;;;;;0.23;0.23;;;;;;;26.53;57.48;99094.47;4972573;28;20293;-59
2023/05/22 11:27:38;;;;;;;0.30;0.30;;;;;;;25.90;60.01;99096.44;4972421;28;20585;-60
2023/05/22 11:30:06;;;;;;;0.30;0.30;;;;;;;25.54;64.42;99092.13;4973405;28;20302;-59
2023/05/22 11:32:36;;;;;;;0.37;0.37;;;;;;;25.48;66.97;99085.66;4976451;28;20204;-59
2023/05/22 11:35:04;;;;;;;0.80;0.80;;;;;;;25.48;67.77;99093.53;4974178;28;20211;-59
2023/05/22 11:37:31;;;;;;;0.40;0.40;;;;;;;25.19;68.86;99079.75;4975549;28;20203;-59
2023/05/22 11:40:04;;;;;;;0.30;0.30;;;;;;;25.28;71.13;99093.78;4971704;28;20675;-60
2023/05/22 11:42:31;;;;;;;0.50;0.50;;;;;;;25.12;69.34;99096.22;4972328;28;20207;-60
2023/05/22 11:44:59;;;;;;;0.30;0.30;;;;;;;25.07;70.76;99101.91;4971959;28;20233;-60
2023/05/22 11:47:27;;;;;;;0.40;0.40;;;;;;;24.98;70.73;99103.59;4973071;28;20294;-60
2023/05/22 11:49:56;;;;;;;0.40;0.40;;;;;;;25.00;72.14;99117.41;4972851;28;20211;-60
2023/05/22 11:52:23;;;;;;;0.30;0.30;;;;;;;24.93;71.19;99124.19;4969751;28;20290;-60